This is the latest recevied weather packets stored in our database for station/object WB2CMF. If no packets are shown the sender has not sent any weather packets the latest 10 day(s).
| Time | Temp. | Humidity | Pressure | Rain* | Wind** | Luminosity | Snow |
|---|---|---|---|---|---|---|---|
| 1777680063 | 11.11° C | 55% | 1012.1 hPa | 0 mm | - | - | - |
| 1777678263 | 11.11° C | 52% | 1011.7 hPa | 0 mm | - | - | - |
| 1777669263 | 15.56° C | 38% | 1010.9 hPa | 0 mm | - | - | - |
| 1777665663 | 17.22° C | 26% | 1010.8 hPa | 0 mm | - | - | - |
| 1777645862 | 11.67° C | 44% | 1012.7 hPa | 0 mm | - | - | - |
| 1777640462 | 10.56° C | 48% | 1012.7 hPa | 0 mm | - | - | - |
| 1777636862 | 8.89° C | 55% | 1012.6 hPa | 0 mm | - | - | - |
| 1777635062 | 7.78° C | 61% | 1012.4 hPa | 0 mm | - | - | - |
| 1777633262 | 5° C | 71% | 1012.2 hPa | 0 mm | - | - | - |
| 1777629661 | 5° C | 72% | 1011.4 hPa | 0 mm | - | - | - |
| 1777626062 | 5.56° C | 71% | 1011 hPa | 0 mm | - | - | - |
| 1777622461 | 6.11° C | 69% | 1010.7 hPa | 0 mm | - | - | - |
| 1777588260 | 13.89° C | 68% | 1007.3 hPa | 0.25 mm | - | - | - |
| 1777561259 | 10° C | 79% | 1007.6 hPa | 0.25 mm | - | - | - |
| 1777555859 | 9.44° C | 80% | 1007.5 hPa | 0.25 mm | - | - | - |
| 1777552259 | 8.89° C | 80% | 1007.7 hPa | 0.25 mm | - | - | - |
| 1777525258 | 8.33° C | 75% | 1009.4 hPa | 0.25 mm | - | - | - |
| 1777523458 | 8.33° C | 74% | 1010.5 hPa | 0.25 mm | - | - | - |
| 1777509057 | 9.44° C | 65% | 1011.8 hPa | 0 mm | - | - | - |
| 1777501857 | 10.56° C | 64% | 1011.7 hPa | 0 mm | - | - | - |
| 1777500057 | 10.56° C | 63% | 1012.1 hPa | 0 mm | - | - | - |
| 1777492857 | 12.78° C | 58% | 1013.8 hPa | 0 mm | - | - | - |
| 1777467656 | 14.44° C | 48% | 1015.8 hPa | 0 mm | - | - | - |
| 1777447855 | 7.78° C | 66% | 1016.9 hPa | 0 mm | - | - | - |
| 1777444255 | 8.89° C | 63% | 1017.6 hPa | 0 mm | - | - | - |
* Rain since midnight (hover to see other rain measurements)
** Current wind speed in m/s (hover to see current wind gust speed)